Aviation Digital Data Service (ADDS)

Output produced by METARs form (1321 UTC 24 August 2019)
found at http://www.aviationweather.gov/metar/data/
 
Forecast for: LIED (DECIMOMANNU(IT-A, IT)
Text: TAF LIED 240500Z 2406/2415 VRB02KT 9999 SCT030
Forecast period: 0600 to 1000 UTC 24 August 2019
Forecast type: FROM: standard forecast or significant change
Winds: variable direction winds at 2 MPH (2 knots; 1.0 m/s)
Visibility: 6 or more miles 10+ km)
Ceiling: at least 12,000 feet AGL
Clouds: scattered clouds at 3000 feet AGL
Weather: no significant weather forecast for this period
Text: BECMG 2410/2412 15010KT
Forecast period: 1000 to 1500 UTC 24 August 2019
Forecast type: BECOMING: Conditions expected to become as follows by 1200 UTC 24 August 2019
Winds: from the SSE (150 degrees) at 12 MPH (10 knots; 5.1 m/s)
Visibility: 6 or more miles 10+ km)
Ceiling: at least 12,000 feet AGL
Clouds: scattered clouds at 3000 feet AGL
Weather: no significant weather forecast for this period
Text: TEMPO 2412/2416 SHRA FEW020CB BKN025
Forecast period: 1200 to 1600 UTC 24 August 2019
Forecast type: TEMPORARY: The following changes expected for less than half the time period
Visibility: missing
Ceiling: 2500 feet AGL
Clouds: few clouds at 2000 feet AGL
broken clouds at 2500 feet AGL
Weather: SHRA  (rain showers)